sensor_id;sensor_type;location;lat;lon;timestamp;P1;durP1;ratioP1;P2;durP2;ratioP2
46561;SDS011;32289;42.688;23.330;2023-05-07T00:00:55;8.63;;;5.57;;
46561;SDS011;32289;42.688;23.330;2023-05-07T00:04:36;11.93;;;5.15;;
46561;SDS011;32289;42.688;23.330;2023-05-07T00:08:19;10.57;;;6.03;;
46561;SDS011;32289;42.688;23.330;2023-05-07T00:12:00;11.77;;;4.88;;
46561;SDS011;32289;42.688;23.330;2023-05-07T00:15:41;9.93;;;5.50;;
46561;SDS011;32289;42.688;23.330;2023-05-07T00:19:21;8.80;;;5.07;;
46561;SDS011;32289;42.688;23.330;2023-05-07T00:23:02;11.40;;;5.20;;
46561;SDS011;32289;42.688;23.330;2023-05-07T00:26:43;12.70;;;5.93;;
46561;SDS011;32289;42.688;23.330;2023-05-07T00:30:23;9.75;;;5.47;;
46561;SDS011;32289;42.688;23.330;2023-05-07T00:34:04;11.00;;;5.05;;
46561;SDS011;32289;42.688;23.330;2023-05-07T00:37:45;10.77;;;5.53;;
46561;SDS011;32289;42.688;23.330;2023-05-07T00:41:26;9.63;;;4.95;;
46561;SDS011;32289;42.688;23.330;2023-05-07T00:45:07;11.18;;;5.63;;
46561;SDS011;32289;42.688;23.330;2023-05-07T00:48:52;10.57;;;5.70;;
46561;SDS011;32289;42.688;23.330;2023-05-07T00:52:34;21.13;;;9.70;;
46561;SDS011;32289;42.688;23.330;2023-05-07T00:56:15;21.15;;;8.63;;
46561;SDS011;32289;42.688;23.330;2023-05-07T00:59:56;10.13;;;5.75;;
46561;SDS011;32289;42.688;23.330;2023-05-07T01:03:37;8.55;;;5.30;;
46561;SDS011;32289;42.688;23.330;2023-05-07T01:07:18;10.95;;;6.07;;
46561;SDS011;32289;42.688;23.330;2023-05-07T01:10:58;12.10;;;5.38;;
46561;SDS011;32289;42.688;23.330;2023-05-07T01:14:40;15.05;;;5.32;;
46561;SDS011;32289;42.688;23.330;2023-05-07T01:18:21;10.35;;;5.80;;
46561;SDS011;32289;42.688;23.330;2023-05-07T01:22:04;12.00;;;6.47;;
46561;SDS011;32289;42.688;23.330;2023-05-07T01:25:52;11.45;;;5.95;;
46561;SDS011;32289;42.688;23.330;2023-05-07T01:29:33;11.52;;;5.35;;
46561;SDS011;32289;42.688;23.330;2023-05-07T01:33:14;7.78;;;5.10;;
46561;SDS011;32289;42.688;23.330;2023-05-07T01:36:58;9.07;;;4.70;;
46561;SDS011;32289;42.688;23.330;2023-05-07T01:40:40;13.32;;;5.03;;
46561;SDS011;32289;42.688;23.330;2023-05-07T01:44:22;11.45;;;5.65;;
46561;SDS011;32289;42.688;23.330;2023-05-07T01:48:03;9.60;;;4.95;;
46561;SDS011;32289;42.688;23.330;2023-05-07T01:51:44;8.50;;;4.65;;
46561;SDS011;32289;42.688;23.330;2023-05-07T01:55:25;7.72;;;4.32;;
46561;SDS011;32289;42.688;23.330;2023-05-07T01:59:06;7.40;;;4.40;;
46561;SDS011;32289;42.688;23.330;2023-05-07T02:02:46;11.52;;;5.05;;
46561;SDS011;32289;42.688;23.330;2023-05-07T02:06:27;8.63;;;4.22;;
46561;SDS011;32289;42.688;23.330;2023-05-07T02:10:08;7.13;;;4.05;;
46561;SDS011;32289;42.688;23.330;2023-05-07T02:13:49;7.85;;;4.32;;
46561;SDS011;32289;42.688;23.330;2023-05-07T02:17:30;6.72;;;3.35;;
46561;SDS011;32289;42.688;23.330;2023-05-07T02:21:11;6.22;;;3.83;;
46561;SDS011;32289;42.688;23.330;2023-05-07T02:24:52;6.60;;;3.50;;
46561;SDS011;32289;42.688;23.330;2023-05-07T02:28:33;8.80;;;3.83;;
46561;SDS011;32289;42.688;23.330;2023-05-07T02:32:15;6.82;;;4.47;;
46561;SDS011;32289;42.688;23.330;2023-05-07T02:35:56;5.97;;;3.60;;
46561;SDS011;32289;42.688;23.330;2023-05-07T02:39:36;6.22;;;3.63;;
46561;SDS011;32289;42.688;23.330;2023-05-07T02:43:17;8.05;;;4.00;;
46561;SDS011;32289;42.688;23.330;2023-05-07T02:46:58;6.60;;;3.88;;
46561;SDS011;32289;42.688;23.330;2023-05-07T02:50:38;7.60;;;3.92;;
46561;SDS011;32289;42.688;23.330;2023-05-07T02:54:19;6.72;;;3.83;;
46561;SDS011;32289;42.688;23.330;2023-05-07T02:58:00;9.50;;;3.97;;
46561;SDS011;32289;42.688;23.330;2023-05-07T03:01:40;6.45;;;3.75;;
46561;SDS011;32289;42.688;23.330;2023-05-07T03:05:23;5.82;;;3.08;;
46561;SDS011;32289;42.688;23.330;2023-05-07T03:09:04;5.78;;;3.53;;
46561;SDS011;32289;42.688;23.330;2023-05-07T03:12:45;6.55;;;3.97;;
46561;SDS011;32289;42.688;23.330;2023-05-07T03:16:25;7.05;;;4.57;;
46561;SDS011;32289;42.688;23.330;2023-05-07T03:20:06;9.07;;;4.60;;
46561;SDS011;32289;42.688;23.330;2023-05-07T03:23:49;7.90;;;3.72;;
46561;SDS011;32289;42.688;23.330;2023-05-07T03:27:30;7.70;;;3.60;;
46561;SDS011;32289;42.688;23.330;2023-05-07T03:31:10;6.88;;;4.15;;
46561;SDS011;32289;42.688;23.330;2023-05-07T03:34:51;6.22;;;3.67;;
46561;SDS011;32289;42.688;23.330;2023-05-07T03:38:32;7.15;;;4.43;;
46561;SDS011;32289;42.688;23.330;2023-05-07T03:42:12;7.95;;;3.97;;
46561;SDS011;32289;42.688;23.330;2023-05-07T03:45:53;6.18;;;3.97;;
46561;SDS011;32289;42.688;23.330;2023-05-07T03:49:34;12.38;;;3.88;;
46561;SDS011;32289;42.688;23.330;2023-05-07T03:53:15;5.57;;;3.85;;
46561;SDS011;32289;42.688;23.330;2023-05-07T03:56:56;8.80;;;4.30;;
46561;SDS011;32289;42.688;23.330;2023-05-07T04:00:37;6.05;;;3.83;;
46561;SDS011;32289;42.688;23.330;2023-05-07T04:04:19;19.60;;;4.35;;
46561;SDS011;32289;42.688;23.330;2023-05-07T04:08:00;9.13;;;4.22;;
46561;SDS011;32289;42.688;23.330;2023-05-07T04:11:41;11.48;;;4.90;;
46561;SDS011;32289;42.688;23.330;2023-05-07T04:15:22;8.15;;;4.45;;
46561;SDS011;32289;42.688;23.330;2023-05-07T04:19:03;10.48;;;5.40;;
46561;SDS011;32289;42.688;23.330;2023-05-07T04:22:43;10.02;;;5.03;;
46561;SDS011;32289;42.688;23.330;2023-05-07T04:26:24;7.43;;;4.28;;
46561;SDS011;32289;42.688;23.330;2023-05-07T04:30:05;9.55;;;4.63;;
46561;SDS011;32289;42.688;23.330;2023-05-07T04:33:46;8.10;;;4.75;;
46561;SDS011;32289;42.688;23.330;2023-05-07T04:37:27;9.15;;;4.40;;
46561;SDS011;32289;42.688;23.330;2023-05-07T04:41:08;8.65;;;4.05;;
46561;SDS011;32289;42.688;23.330;2023-05-07T04:44:52;8.38;;;4.40;;
46561;SDS011;32289;42.688;23.330;2023-05-07T04:48:33;9.02;;;4.40;;
46561;SDS011;32289;42.688;23.330;2023-05-07T04:52:14;10.77;;;5.40;;
46561;SDS011;32289;42.688;23.330;2023-05-07T04:55:56;7.22;;;4.68;;
46561;SDS011;32289;42.688;23.330;2023-05-07T04:59:37;7.60;;;4.50;;
46561;SDS011;32289;42.688;23.330;2023-05-07T05:03:17;10.02;;;4.22;;
46561;SDS011;32289;42.688;23.330;2023-05-07T05:06:58;9.00;;;4.07;;
46561;SDS011;32289;42.688;23.330;2023-05-07T05:10:39;6.90;;;3.78;;
46561;SDS011;32289;42.688;23.330;2023-05-07T05:14:21;6.40;;;4.03;;
46561;SDS011;32289;42.688;23.330;2023-05-07T05:18:02;7.20;;;4.50;;
46561;SDS011;32289;42.688;23.330;2023-05-07T05:21:42;6.78;;;3.70;;
46561;SDS011;32289;42.688;23.330;2023-05-07T05:25:23;9.63;;;4.13;;
46561;SDS011;32289;42.688;23.330;2023-05-07T05:29:04;6.38;;;4.50;;
46561;SDS011;32289;42.688;23.330;2023-05-07T05:32:44;8.35;;;4.07;;
46561;SDS011;32289;42.688;23.330;2023-05-07T05:36:25;6.90;;;4.28;;
46561;SDS011;32289;42.688;23.330;2023-05-07T05:40:06;7.05;;;4.15;;
46561;SDS011;32289;42.688;23.330;2023-05-07T05:43:48;6.90;;;4.43;;
46561;SDS011;32289;42.688;23.330;2023-05-07T05:47:29;7.95;;;4.35;;
46561;SDS011;32289;42.688;23.330;2023-05-07T05:51:09;5.30;;;4.00;;
46561;SDS011;32289;42.688;23.330;2023-05-07T05:54:50;6.15;;;4.18;;
46561;SDS011;32289;42.688;23.330;2023-05-07T05:58:31;7.57;;;4.20;;
46561;SDS011;32289;42.688;23.330;2023-05-07T06:02:11;8.32;;;5.38;;
46561;SDS011;32289;42.688;23.330;2023-05-07T06:05:52;8.35;;;4.47;;
46561;SDS011;32289;42.688;23.330;2023-05-07T06:09:33;7.72;;;4.30;;
46561;SDS011;32289;42.688;23.330;2023-05-07T06:13:14;7.55;;;4.35;;
46561;SDS011;32289;42.688;23.330;2023-05-07T06:16:54;7.47;;;5.20;;
46561;SDS011;32289;42.688;23.330;2023-05-07T06:20:35;9.15;;;4.72;;
46561;SDS011;32289;42.688;23.330;2023-05-07T06:24:16;9.30;;;4.57;;
46561;SDS011;32289;42.688;23.330;2023-05-07T06:27:56;6.97;;;4.35;;
46561;SDS011;32289;42.688;23.330;2023-05-07T06:31:37;6.07;;;4.32;;
46561;SDS011;32289;42.688;23.330;2023-05-07T06:35:18;5.40;;;3.83;;
46561;SDS011;32289;42.688;23.330;2023-05-07T06:38:58;5.88;;;4.20;;
46561;SDS011;32289;42.688;23.330;2023-05-07T06:42:39;6.10;;;4.40;;
46561;SDS011;32289;42.688;23.330;2023-05-07T06:46:20;9.40;;;4.05;;
46561;SDS011;32289;42.688;23.330;2023-05-07T06:50:01;8.35;;;4.32;;
46561;SDS011;32289;42.688;23.330;2023-05-07T06:53:41;7.57;;;4.72;;
46561;SDS011;32289;42.688;23.330;2023-05-07T06:57:22;9.65;;;4.50;;
46561;SDS011;32289;42.688;23.330;2023-05-07T07:01:03;6.55;;;5.20;;
46561;SDS011;32289;42.688;23.330;2023-05-07T07:04:44;5.60;;;3.80;;
46561;SDS011;32289;42.688;23.330;2023-05-07T07:08:25;4.93;;;3.72;;
46561;SDS011;32289;42.688;23.330;2023-05-07T07:12:06;5.90;;;3.83;;
46561;SDS011;32289;42.688;23.330;2023-05-07T07:15:46;8.30;;;4.03;;
46561;SDS011;32289;42.688;23.330;2023-05-07T07:19:27;8.80;;;6.45;;
46561;SDS011;32289;42.688;23.330;2023-05-07T07:23:08;5.22;;;4.28;;
46561;SDS011;32289;42.688;23.330;2023-05-07T07:26:48;6.65;;;4.50;;
46561;SDS011;32289;42.688;23.330;2023-05-07T07:30:29;12.07;;;5.97;;
46561;SDS011;32289;42.688;23.330;2023-05-07T07:34:10;6.35;;;5.00;;
46561;SDS011;32289;42.688;23.330;2023-05-07T07:37:51;7.20;;;4.15;;
46561;SDS011;32289;42.688;23.330;2023-05-07T07:41:31;5.18;;;4.15;;
46561;SDS011;32289;42.688;23.330;2023-05-07T07:45:12;12.40;;;5.78;;
46561;SDS011;32289;42.688;23.330;2023-05-07T07:48:53;5.63;;;4.53;;
46561;SDS011;32289;42.688;23.330;2023-05-07T07:52:34;8.18;;;4.65;;
46561;SDS011;32289;42.688;23.330;2023-05-07T07:56:15;8.70;;;4.22;;
46561;SDS011;32289;42.688;23.330;2023-05-07T07:59:55;10.50;;;5.65;;
46561;SDS011;32289;42.688;23.330;2023-05-07T08:03:36;8.55;;;5.15;;
46561;SDS011;32289;42.688;23.330;2023-05-07T08:07:18;5.90;;;3.80;;
46561;SDS011;32289;42.688;23.330;2023-05-07T08:11:00;6.95;;;3.70;;
46561;SDS011;32289;42.688;23.330;2023-05-07T08:14:41;6.53;;;4.28;;
46561;SDS011;32289;42.688;23.330;2023-05-07T08:18:22;7.90;;;4.57;;
46561;SDS011;32289;42.688;23.330;2023-05-07T08:22:04;5.15;;;3.92;;
46561;SDS011;32289;42.688;23.330;2023-05-07T08:25:46;6.65;;;4.78;;
46561;SDS011;32289;42.688;23.330;2023-05-07T08:29:27;5.90;;;4.20;;
46561;SDS011;32289;42.688;23.330;2023-05-07T08:33:11;7.25;;;3.70;;
46561;SDS011;32289;42.688;23.330;2023-05-07T08:36:51;6.55;;;4.40;;
46561;SDS011;32289;42.688;23.330;2023-05-07T08:40:35;4.35;;;2.95;;
46561;SDS011;32289;42.688;23.330;2023-05-07T08:44:18;6.07;;;3.42;;
46561;SDS011;32289;42.688;23.330;2023-05-07T08:48:03;7.03;;;4.53;;
46561;SDS011;32289;42.688;23.330;2023-05-07T08:51:48;6.65;;;2.78;;
46561;SDS011;32289;42.688;23.330;2023-05-07T08:55:29;6.07;;;4.10;;
46561;SDS011;32289;42.688;23.330;2023-05-07T08:59:10;7.20;;;3.35;;
46561;SDS011;32289;42.688;23.330;2023-05-07T09:02:52;5.82;;;2.42;;
46561;SDS011;32289;42.688;23.330;2023-05-07T09:06:33;12.30;;;6.80;;
46561;SDS011;32289;42.688;23.330;2023-05-07T09:10:14;5.35;;;3.13;;
46561;SDS011;32289;42.688;23.330;2023-05-07T09:13:57;4.47;;;2.85;;
46561;SDS011;32289;42.688;23.330;2023-05-07T09:17:41;5.28;;;4.25;;
46561;SDS011;32289;42.688;23.330;2023-05-07T09:21:22;5.00;;;2.55;;
46561;SDS011;32289;42.688;23.330;2023-05-07T09:25:04;5.75;;;3.20;;
46561;SDS011;32289;42.688;23.330;2023-05-07T09:28:46;4.60;;;2.83;;
46561;SDS011;32289;42.688;23.330;2023-05-07T09:32:26;8.05;;;3.08;;
46561;SDS011;32289;42.688;23.330;2023-05-07T09:36:08;6.05;;;3.58;;
46561;SDS011;32289;42.688;23.330;2023-05-07T09:39:50;5.40;;;4.13;;
46561;SDS011;32289;42.688;23.330;2023-05-07T09:43:32;4.45;;;2.20;;
46561;SDS011;32289;42.688;23.330;2023-05-07T09:47:18;2.70;;;2.05;;
46561;SDS011;32289;42.688;23.330;2023-05-07T09:51:01;3.25;;;2.22;;
46561;SDS011;32289;42.688;23.330;2023-05-07T09:54:43;3.30;;;1.95;;
46561;SDS011;32289;42.688;23.330;2023-05-07T09:58:25;4.05;;;1.95;;
46561;SDS011;32289;42.688;23.330;2023-05-07T10:02:06;3.03;;;1.80;;
46561;SDS011;32289;42.688;23.330;2023-05-07T10:05:50;4.00;;;2.88;;
46561;SDS011;32289;42.688;23.330;2023-05-07T10:09:31;2.92;;;2.08;;
46561;SDS011;32289;42.688;23.330;2023-05-07T10:13:12;4.20;;;2.40;;
46561;SDS011;32289;42.688;23.330;2023-05-07T10:16:53;3.72;;;1.70;;
46561;SDS011;32289;42.688;23.330;2023-05-07T10:20:34;3.90;;;1.77;;
46561;SDS011;32289;42.688;23.330;2023-05-07T10:24:19;3.63;;;1.80;;
46561;SDS011;32289;42.688;23.330;2023-05-07T10:28:05;4.72;;;2.08;;
46561;SDS011;32289;42.688;23.330;2023-05-07T10:32:35;3.42;;;1.88;;
46561;SDS011;32289;42.688;23.330;2023-05-07T10:35:58;3.83;;;1.70;;
46561;SDS011;32289;42.688;23.330;2023-05-07T10:39:41;4.45;;;2.40;;
46561;SDS011;32289;42.688;23.330;2023-05-07T10:43:22;6.00;;;2.45;;
46561;SDS011;32289;42.688;23.330;2023-05-07T10:47:07;4.97;;;2.58;;
46561;SDS011;32289;42.688;23.330;2023-05-07T10:50:49;3.50;;;1.75;;
46561;SDS011;32289;42.688;23.330;2023-05-07T10:59:04;3.28;;;2.05;;
46561;SDS011;32289;42.688;23.330;2023-05-07T11:06:41;3.58;;;1.65;;
46561;SDS011;32289;42.688;23.330;2023-05-07T11:10:22;3.22;;;2.17;;
46561;SDS011;32289;42.688;23.330;2023-05-07T11:14:03;7.80;;;3.60;;
46561;SDS011;32289;42.688;23.330;2023-05-07T11:17:59;4.53;;;2.70;;
46561;SDS011;32289;42.688;23.330;2023-05-07T11:21:41;4.53;;;2.40;;
46561;SDS011;32289;42.688;23.330;2023-05-07T11:25:22;4.75;;;2.42;;
46561;SDS011;32289;42.688;23.330;2023-05-07T11:29:03;4.45;;;2.53;;
46561;SDS011;32289;42.688;23.330;2023-05-07T11:32:58;3.88;;;2.40;;
46561;SDS011;32289;42.688;23.330;2023-05-07T11:36:41;10.10;;;6.93;;
46561;SDS011;32289;42.688;23.330;2023-05-07T11:40:23;4.32;;;2.72;;
46561;SDS011;32289;42.688;23.330;2023-05-07T11:44:04;3.28;;;2.50;;
46561;SDS011;32289;42.688;23.330;2023-05-07T11:47:45;5.13;;;2.30;;
46561;SDS011;32289;42.688;23.330;2023-05-07T11:51:26;2.75;;;1.70;;
46561;SDS011;32289;42.688;23.330;2023-05-07T11:55:07;4.10;;;2.13;;
46561;SDS011;32289;42.688;23.330;2023-05-07T11:58:48;4.35;;;2.17;;
46561;SDS011;32289;42.688;23.330;2023-05-07T12:02:29;3.17;;;2.30;;
46561;SDS011;32289;42.688;23.330;2023-05-07T12:06:11;3.00;;;1.88;;
46561;SDS011;32289;42.688;23.330;2023-05-07T12:09:53;5.28;;;2.70;;
46561;SDS011;32289;42.688;23.330;2023-05-07T12:13:34;7.25;;;4.00;;
46561;SDS011;32289;42.688;23.330;2023-05-07T12:17:14;3.00;;;2.05;;
46561;SDS011;32289;42.688;23.330;2023-05-07T12:20:56;3.35;;;1.60;;
46561;SDS011;32289;42.688;23.330;2023-05-07T12:24:44;3.35;;;1.70;;
46561;SDS011;32289;42.688;23.330;2023-05-07T12:28:29;2.65;;;1.50;;
46561;SDS011;32289;42.688;23.330;2023-05-07T12:32:14;3.13;;;1.88;;
46561;SDS011;32289;42.688;23.330;2023-05-07T12:36:02;8.85;;;3.00;;
46561;SDS011;32289;42.688;23.330;2023-05-07T12:39:48;3.85;;;2.75;;
46561;SDS011;32289;42.688;23.330;2023-05-07T12:43:30;2.28;;;1.40;;
46561;SDS011;32289;42.688;23.330;2023-05-07T12:47:11;3.38;;;1.70;;
46561;SDS011;32289;42.688;23.330;2023-05-07T12:50:53;3.20;;;1.92;;
46561;SDS011;32289;42.688;23.330;2023-05-07T12:54:35;2.75;;;1.70;;
46561;SDS011;32289;42.688;23.330;2023-05-07T13:01:59;3.45;;;2.13;;
46561;SDS011;32289;42.688;23.330;2023-05-07T13:05:40;2.55;;;1.48;;
46561;SDS011;32289;42.688;23.330;2023-05-07T13:09:21;4.07;;;2.38;;
46561;SDS011;32289;42.688;23.330;2023-05-07T13:13:01;3.00;;;1.30;;
46561;SDS011;32289;42.688;23.330;2023-05-07T13:16:43;2.55;;;1.60;;
46561;SDS011;32289;42.688;23.330;2023-05-07T13:20:23;2.45;;;1.90;;
46561;SDS011;32289;42.688;23.330;2023-05-07T13:24:04;2.25;;;1.55;;
46561;SDS011;32289;42.688;23.330;2023-05-07T13:27:45;10.00;;;5.32;;
46561;SDS011;32289;42.688;23.330;2023-05-07T13:31:26;5.18;;;2.63;;
46561;SDS011;32289;42.688;23.330;2023-05-07T13:35:07;4.70;;;1.92;;
46561;SDS011;32289;42.688;23.330;2023-05-07T13:38:47;3.25;;;1.50;;
46561;SDS011;32289;42.688;23.330;2023-05-07T13:42:28;3.88;;;1.60;;
46561;SDS011;32289;42.688;23.330;2023-05-07T13:46:09;3.38;;;1.80;;
46561;SDS011;32289;42.688;23.330;2023-05-07T13:49:50;2.67;;;1.52;;
46561;SDS011;32289;42.688;23.330;2023-05-07T13:53:30;4.00;;;1.98;;
46561;SDS011;32289;42.688;23.330;2023-05-07T13:57:11;3.55;;;1.70;;
46561;SDS011;32289;42.688;23.330;2023-05-07T14:00:52;2.80;;;1.80;;
46561;SDS011;32289;42.688;23.330;2023-05-07T14:04:32;6.45;;;1.73;;
46561;SDS011;32289;42.688;23.330;2023-05-07T14:08:13;2.33;;;1.83;;
46561;SDS011;32289;42.688;23.330;2023-05-07T14:11:54;4.72;;;2.13;;
46561;SDS011;32289;42.688;23.330;2023-05-07T14:15:35;3.50;;;2.20;;
46561;SDS011;32289;42.688;23.330;2023-05-07T14:19:16;3.85;;;2.40;;
46561;SDS011;32289;42.688;23.330;2023-05-07T14:22:57;3.25;;;2.10;;
46561;SDS011;32289;42.688;23.330;2023-05-07T14:26:38;7.25;;;1.75;;
46561;SDS011;32289;42.688;23.330;2023-05-07T14:30:19;2.42;;;1.45;;
46561;SDS011;32289;42.688;23.330;2023-05-07T14:33:59;2.60;;;1.45;;
46561;SDS011;32289;42.688;23.330;2023-05-07T14:37:40;2.58;;;1.77;;
46561;SDS011;32289;42.688;23.330;2023-05-07T14:41:21;6.82;;;2.45;;
46561;SDS011;32289;42.688;23.330;2023-05-07T14:45:02;4.60;;;3.03;;
46561;SDS011;32289;42.688;23.330;2023-05-07T14:48:46;2.95;;;1.90;;
46561;SDS011;32289;42.688;23.330;2023-05-07T14:52:27;5.68;;;2.95;;
46561;SDS011;32289;42.688;23.330;2023-05-07T14:56:08;2.65;;;1.80;;
46561;SDS011;32289;42.688;23.330;2023-05-07T14:59:48;5.15;;;1.63;;
46561;SDS011;32289;42.688;23.330;2023-05-07T15:03:29;5.20;;;2.92;;
46561;SDS011;32289;42.688;23.330;2023-05-07T15:07:10;3.75;;;1.92;;
46561;SDS011;32289;42.688;23.330;2023-05-07T15:10:52;2.47;;;1.50;;
46561;SDS011;32289;42.688;23.330;2023-05-07T15:14:32;4.57;;;2.70;;
46561;SDS011;32289;42.688;23.330;2023-05-07T15:18:14;3.65;;;2.40;;
46561;SDS011;32289;42.688;23.330;2023-05-07T15:21:58;10.98;;;4.03;;
46561;SDS011;32289;42.688;23.330;2023-05-07T15:25:42;4.53;;;1.70;;
46561;SDS011;32289;42.688;23.330;2023-05-07T15:29:23;5.53;;;2.25;;
46561;SDS011;32289;42.688;23.330;2023-05-07T15:33:04;4.13;;;2.50;;
46561;SDS011;32289;42.688;23.330;2023-05-07T15:36:45;4.78;;;1.73;;
46561;SDS011;32289;42.688;23.330;2023-05-07T15:40:26;6.07;;;2.60;;
46561;SDS011;32289;42.688;23.330;2023-05-07T15:44:07;3.67;;;2.85;;
46561;SDS011;32289;42.688;23.330;2023-05-07T15:47:47;6.93;;;2.88;;
46561;SDS011;32289;42.688;23.330;2023-05-07T15:51:28;5.82;;;3.42;;
46561;SDS011;32289;42.688;23.330;2023-05-07T15:55:10;2.67;;;1.55;;
46561;SDS011;32289;42.688;23.330;2023-05-07T15:58:51;2.83;;;1.67;;
46561;SDS011;32289;42.688;23.330;2023-05-07T16:02:32;2.40;;;1.48;;
46561;SDS011;32289;42.688;23.330;2023-05-07T16:06:13;2.80;;;1.70;;
46561;SDS011;32289;42.688;23.330;2023-05-07T16:09:54;4.60;;;1.95;;
46561;SDS011;32289;42.688;23.330;2023-05-07T16:13:34;5.90;;;2.42;;
46561;SDS011;32289;42.688;23.330;2023-05-07T16:17:18;3.55;;;1.77;;
46561;SDS011;32289;42.688;23.330;2023-05-07T16:20:58;3.67;;;2.03;;
46561;SDS011;32289;42.688;23.330;2023-05-07T16:24:40;2.40;;;1.40;;
46561;SDS011;32289;42.688;23.330;2023-05-07T16:28:21;5.70;;;1.98;;
46561;SDS011;32289;42.688;23.330;2023-05-07T16:32:02;3.33;;;1.73;;
46561;SDS011;32289;42.688;23.330;2023-05-07T16:35:42;3.03;;;1.70;;
46561;SDS011;32289;42.688;23.330;2023-05-07T16:39:26;7.32;;;2.80;;
46561;SDS011;32289;42.688;23.330;2023-05-07T16:43:07;3.97;;;2.03;;
46561;SDS011;32289;42.688;23.330;2023-05-07T16:46:47;4.55;;;2.25;;
46561;SDS011;32289;42.688;23.330;2023-05-07T16:50:28;4.65;;;2.60;;
46561;SDS011;32289;42.688;23.330;2023-05-07T16:54:09;4.20;;;2.78;;
46561;SDS011;32289;42.688;23.330;2023-05-07T16:57:50;4.38;;;2.88;;
46561;SDS011;32289;42.688;23.330;2023-05-07T17:01:30;9.98;;;4.30;;
46561;SDS011;32289;42.688;23.330;2023-05-07T17:05:11;15.93;;;4.70;;
46561;SDS011;32289;42.688;23.330;2023-05-07T17:08:52;7.40;;;3.85;;
46561;SDS011;32289;42.688;23.330;2023-05-07T17:12:32;5.72;;;3.17;;
46561;SDS011;32289;42.688;23.330;2023-05-07T17:16:14;9.50;;;3.75;;
46561;SDS011;32289;42.688;23.330;2023-05-07T17:19:55;5.38;;;3.10;;
46561;SDS011;32289;42.688;23.330;2023-05-07T17:23:36;9.10;;;2.20;;
46561;SDS011;32289;42.688;23.330;2023-05-07T17:27:16;3.20;;;1.73;;
46561;SDS011;32289;42.688;23.330;2023-05-07T17:30:57;5.20;;;2.22;;
46561;SDS011;32289;42.688;23.330;2023-05-07T17:34:40;4.50;;;2.33;;
46561;SDS011;32289;42.688;23.330;2023-05-07T17:38:21;5.82;;;3.08;;
46561;SDS011;32289;42.688;23.330;2023-05-07T17:42:01;12.80;;;5.88;;
46561;SDS011;32289;42.688;23.330;2023-05-07T17:45:42;10.82;;;5.40;;
46561;SDS011;32289;42.688;23.330;2023-05-07T17:49:23;7.22;;;3.17;;
46561;SDS011;32289;42.688;23.330;2023-05-07T17:53:03;5.38;;;2.83;;
46561;SDS011;32289;42.688;23.330;2023-05-07T17:56:45;5.70;;;2.50;;
46561;SDS011;32289;42.688;23.330;2023-05-07T18:00:25;8.30;;;3.70;;
46561;SDS011;32289;42.688;23.330;2023-05-07T18:04:07;3.55;;;1.90;;
46561;SDS011;32289;42.688;23.330;2023-05-07T18:07:48;9.63;;;4.68;;
46561;SDS011;32289;42.688;23.330;2023-05-07T18:11:28;4.95;;;3.00;;
46561;SDS011;32289;42.688;23.330;2023-05-07T18:15:11;5.72;;;2.20;;
46561;SDS011;32289;42.688;23.330;2023-05-07T18:18:52;5.75;;;2.13;;
46561;SDS011;32289;42.688;23.330;2023-05-07T18:22:33;5.10;;;2.25;;
46561;SDS011;32289;42.688;23.330;2023-05-07T18:26:14;3.88;;;2.47;;
46561;SDS011;32289;42.688;23.330;2023-05-07T18:29:56;8.05;;;2.75;;
46561;SDS011;32289;42.688;23.330;2023-05-07T18:33:36;4.80;;;2.47;;
46561;SDS011;32289;42.688;23.330;2023-05-07T18:37:17;3.50;;;1.90;;
46561;SDS011;32289;42.688;23.330;2023-05-07T18:41:02;3.95;;;2.20;;
46561;SDS011;32289;42.688;23.330;2023-05-07T18:44:44;7.70;;;2.08;;
46561;SDS011;32289;42.688;23.330;2023-05-07T18:48:24;6.10;;;2.50;;
46561;SDS011;32289;42.688;23.330;2023-05-07T18:52:05;7.10;;;2.45;;
46561;SDS011;32289;42.688;23.330;2023-05-07T18:55:49;3.67;;;1.92;;
46561;SDS011;32289;42.688;23.330;2023-05-07T18:59:31;5.25;;;2.65;;
46561;SDS011;32289;42.688;23.330;2023-05-07T19:03:11;7.75;;;2.90;;
46561;SDS011;32289;42.688;23.330;2023-05-07T19:06:54;5.80;;;2.70;;
46561;SDS011;32289;42.688;23.330;2023-05-07T19:10:34;3.55;;;2.28;;
46561;SDS011;32289;42.688;23.330;2023-05-07T19:14:15;7.00;;;2.80;;
46561;SDS011;32289;42.688;23.330;2023-05-07T19:17:56;10.40;;;2.72;;
46561;SDS011;32289;42.688;23.330;2023-05-07T19:21:36;4.90;;;2.20;;
46561;SDS011;32289;42.688;23.330;2023-05-07T19:25:17;4.05;;;2.28;;
46561;SDS011;32289;42.688;23.330;2023-05-07T19:28:58;7.47;;;2.70;;
46561;SDS011;32289;42.688;23.330;2023-05-07T19:32:38;5.55;;;2.88;;
46561;SDS011;32289;42.688;23.330;2023-05-07T19:36:19;10.18;;;3.13;;
46561;SDS011;32289;42.688;23.330;2023-05-07T19:40:00;8.82;;;2.33;;
46561;SDS011;32289;42.688;23.330;2023-05-07T19:43:44;5.75;;;2.90;;
46561;SDS011;32289;42.688;23.330;2023-05-07T19:47:24;5.05;;;2.97;;
46561;SDS011;32289;42.688;23.330;2023-05-07T19:51:05;6.43;;;2.78;;
46561;SDS011;32289;42.688;23.330;2023-05-07T19:54:48;5.13;;;2.55;;
46561;SDS011;32289;42.688;23.330;2023-05-07T19:58:31;4.28;;;2.30;;
46561;SDS011;32289;42.688;23.330;2023-05-07T20:02:12;5.03;;;2.60;;
46561;SDS011;32289;42.688;23.330;2023-05-07T20:05:54;4.40;;;2.60;;
46561;SDS011;32289;42.688;23.330;2023-05-07T20:09:34;4.88;;;2.58;;
46561;SDS011;32289;42.688;23.330;2023-05-07T20:13:15;7.28;;;2.70;;
46561;SDS011;32289;42.688;23.330;2023-05-07T20:16:57;4.28;;;2.80;;
46561;SDS011;32289;42.688;23.330;2023-05-07T20:20:37;9.63;;;2.90;;
46561;SDS011;32289;42.688;23.330;2023-05-07T20:24:18;4.28;;;2.72;;
46561;SDS011;32289;42.688;23.330;2023-05-07T20:28:00;8.32;;;2.47;;
46561;SDS011;32289;42.688;23.330;2023-05-07T20:31:41;5.15;;;2.80;;
46561;SDS011;32289;42.688;23.330;2023-05-07T20:35:22;6.57;;;3.20;;
46561;SDS011;32289;42.688;23.330;2023-05-07T20:39:03;5.53;;;2.72;;
46561;SDS011;32289;42.688;23.330;2023-05-07T20:42:43;10.88;;;3.85;;
46561;SDS011;32289;42.688;23.330;2023-05-07T20:46:24;5.35;;;2.97;;
46561;SDS011;32289;42.688;23.330;2023-05-07T20:50:06;6.78;;;3.25;;
46561;SDS011;32289;42.688;23.330;2023-05-07T20:53:47;5.05;;;3.05;;
46561;SDS011;32289;42.688;23.330;2023-05-07T20:57:28;3.80;;;2.28;;
46561;SDS011;32289;42.688;23.330;2023-05-07T21:01:08;7.22;;;3.03;;
46561;SDS011;32289;42.688;23.330;2023-05-07T21:04:49;3.35;;;1.77;;
46561;SDS011;32289;42.688;23.330;2023-05-07T21:08:32;4.32;;;2.55;;
46561;SDS011;32289;42.688;23.330;2023-05-07T21:12:13;4.80;;;2.13;;
46561;SDS011;32289;42.688;23.330;2023-05-07T21:15:54;3.47;;;2.00;;
46561;SDS011;32289;42.688;23.330;2023-05-07T21:19:35;4.25;;;2.20;;
46561;SDS011;32289;42.688;23.330;2023-05-07T21:23:15;4.00;;;2.45;;
46561;SDS011;32289;42.688;23.330;2023-05-07T21:26:58;6.53;;;2.22;;
46561;SDS011;32289;42.688;23.330;2023-05-07T21:30:39;5.15;;;2.30;;
46561;SDS011;32289;42.688;23.330;2023-05-07T21:34:20;3.72;;;2.33;;
46561;SDS011;32289;42.688;23.330;2023-05-07T21:38:00;4.28;;;2.20;;
46561;SDS011;32289;42.688;23.330;2023-05-07T21:41:42;5.03;;;1.80;;
46561;SDS011;32289;42.688;23.330;2023-05-07T21:45:22;3.70;;;2.00;;
46561;SDS011;32289;42.688;23.330;2023-05-07T21:49:03;2.83;;;1.98;;
46561;SDS011;32289;42.688;23.330;2023-05-07T21:52:44;3.63;;;1.42;;
46561;SDS011;32289;42.688;23.330;2023-05-07T21:56:25;3.67;;;2.10;;
46561;SDS011;32289;42.688;23.330;2023-05-07T22:00:06;3.65;;;1.60;;
46561;SDS011;32289;42.688;23.330;2023-05-07T22:03:48;2.65;;;1.88;;